Naples Municipal Airport
KAPF : rendu visible

Aérodrome :











RETROUVEZ-NOUS SUR...

 
LOGIN :

S'inscrire | Disclaimer

   EN    FR    IT 

 









Légende :    VFR   VFR Marginal   IFR   IFR Intensif   IFR Très Intensif
Visi : 
Plafond : 
>= 8 km
>= 3000ft
5 à 8 km
1000 à 3000 ft
1500m à 5 km
500 à 1000 ft
800 à 1500m
200 à 500 ft
< 800m
< 200 ft
Symboles :   Orages  Brouillard  Fortes neiges  Fortes précipitations  Vent > 20 kt






- Altitude de l'aérodrome : 8 ft


KAPF - Naples Municipal

DERNIER METAR :
  • 281153Z 03004KT 3SM BR BKN003 OVC015 19/18 A2990 RMK AO2 CIG 003V008 SLP125 T01940183 10211 20194 53011

METARs EXPIRÉS :
  • 281137Z 04003KT 3SM BR BKN005 OVC015 19/18 A2990 RMK AO2 CIG 002V008 T01940183
  • 281119Z 03003KT 3SM BR BKN003 OVC009 19/18 A2989 RMK AO2 CIG 002V007 T01940183
  • 281053Z 00000KT 3SM BR OVC011 20/19 A2988 RMK AO2 SLP116 T02000189
  • 281041Z AUTO 00000KT 3SM BR OVC010 20/19 A2988 RMK AO2 T02000189
  • 281034Z AUTO 00000KT 1SM BR OVC010 20/19 A2987 RMK AO2 T02000194
  • 281016Z AUTO 00000KT 1/4SM FG VV005 20/19 A2987 RMK AO2 T02000194
  • 280957Z AUTO 03003KT 1/2SM FG OVC003 21/19 A2986 RMK AO2 T02060194
  • 280937Z AUTO 00000KT 3SM BR OVC003 21/19 A2987 RMK AO2 T02060194

TAF KAPF
Valide du 28 à 12h jusqu'au 29 à 12h UTC


281145Z 2812/2912 VRB05KT P6SM SCT010 BKN040
TEMPO 2812/2813 1SM BR BKN005 OVC015
FM281800 35007KT P6SM FEW040 SCT070
FM290000 VRB03KT P6SM SCT040 SCT050



MET'MAP, la Météo Aéronautique d'un coup d'oeil ! - Copyright ORBIFLY Décembre 2007 - Disclaimer

ORBIFLY MET'MAP TEAM :

Programmation & Développement : Alexandra Zaïnal
Sur une idée originale de : Baudouin d'Aumeries
Assistance à la programmation : Marc-Olivier Méhu
Soutien technique & logistique : Manuel Goepfert

Contact : metmap@orbifly.com




SOURCES & CREDITS :

   NOAA       Earth
Advisory